Time;durP1;ratioP1;P1;durP2;ratioP2;P2;SDS_P1;SDS_P2;PMS_P1;PMS_P2;Temp;Humidity;BMP_temperature;BMP_pressure;BME280_temperature;BME280_humidity;BME280_pressure;Samples;Min_cycle;Max_cycle;Signal;HPM_P1;HPM_P2
2023/02/23 00:01:15;;;;;;;21.30;12.87;;;5.90;99.90;;;;;;5054940;28;20218;-89
2023/02/23 00:03:42;;;;;;;20.93;11.70;;;5.70;99.90;;;;;;5070850;28;20205;-89
2023/02/23 00:06:10;;;;;;;22.30;12.50;;;5.80;99.90;;;;;;5061000;28;20277;-88
2023/02/23 00:08:38;;;;;;;24.70;12.70;;;5.80;99.90;;;;;;5067934;28;20194;-89
2023/02/23 00:11:06;;;;;;;22.40;13.13;;;5.90;99.90;;;;;;5064733;28;20202;-89
2023/02/23 00:13:36;;;;;;;27.60;14.90;;;6.10;99.90;;;;;;5073226;28;20221;-89
2023/02/23 00:16:06;;;;;;;22.20;12.90;;;6.20;99.90;;;;;;5070389;28;20226;-89
2023/02/23 00:18:43;;;;;;;23.37;14.20;;;6.30;99.90;;;;;;5067548;28;20206;-89
2023/02/23 00:21:13;;;;;;;27.17;14.03;;;6.40;99.90;;;;;;5066321;28;20664;-88
2023/02/23 00:23:41;;;;;;;23.00;13.33;;;6.40;99.90;;;;;;5066209;28;20203;-88
2023/02/23 00:26:08;;;;;;;23.83;14.10;;;6.50;99.90;;;;;;5071209;28;20223;-88
2023/02/23 00:28:34;;;;;;;23.33;13.27;;;6.40;99.90;;;;;;5070987;28;20198;-88
2023/02/23 00:31:02;;;;;;;21.30;12.27;;;6.40;99.90;;;;;;5066969;28;20450;-89
2023/02/23 00:33:30;;;;;;;22.43;13.03;;;6.40;99.90;;;;;;5063388;28;20199;-89
2023/02/23 00:36:04;;;;;;;23.87;12.87;;;6.50;99.90;;;;;;5066084;28;20279;-89
2023/02/23 00:38:33;;;;;;;19.83;12.17;;;6.50;99.90;;;;;;5072443;28;20206;-88
2023/02/23 00:41:00;;;;;;;19.20;12.00;;;6.50;99.90;;;;;;5058904;28;20565;-88
2023/02/23 00:43:27;;;;;;;20.70;12.03;;;6.50;99.90;;;;;;5052808;28;20199;-88
2023/02/23 00:45:55;;;;;;;18.77;11.23;;;6.60;99.90;;;;;;5062279;28;20250;-89
2023/02/23 00:48:22;;;;;;;18.50;11.10;;;6.70;99.90;;;;;;5052048;28;20238;-88
2023/02/23 00:50:59;;;;;;;17.90;11.03;;;6.60;99.90;;;;;;5053771;28;20195;-89
2023/02/23 00:53:26;;;;;;;19.77;11.27;;;6.60;99.90;;;;;;5067896;28;20206;-89
2023/02/23 00:55:53;;;;;;;19.80;11.40;;;6.70;99.90;;;;;;5062916;28;20223;-88
2023/02/23 00:58:20;;;;;;;17.83;10.43;;;6.70;99.90;;;;;;5062591;28;20203;-89
2023/02/23 01:00:47;;;;;;;16.43;10.33;;;6.70;99.90;;;;;;5062271;28;20210;-89
2023/02/23 01:03:14;;;;;;;19.60;11.50;;;6.80;99.90;;;;;;5060168;28;20289;-88
2023/02/23 01:05:42;;;;;;;17.67;11.80;;;6.80;99.90;;;;;;5061726;28;20246;-89
2023/02/23 01:08:11;;;;;;;16.77;10.33;;;6.90;99.90;;;;;;5052277;28;20260;-88
2023/02/23 01:10:41;;;;;;;19.37;11.27;;;6.90;99.90;;;;;;5060024;28;20198;-88
2023/02/23 01:13:09;;;;;;;19.83;12.77;;;6.90;99.90;;;;;;5060641;28;20647;-89
2023/02/23 01:15:41;;;;;;;19.53;11.70;;;6.90;99.90;;;;;;5053590;28;20226;-89
2023/02/23 01:18:08;;;;;;;19.03;11.63;;;7.00;99.90;;;;;;5072566;28;20248;-88
2023/02/23 01:20:36;;;;;;;21.37;12.43;;;7.00;99.90;;;;;;5072413;28;20677;-89
2023/02/23 01:23:03;;;;;;;22.37;13.47;;;7.10;99.90;;;;;;5072172;28;20206;-88
2023/02/23 01:25:33;;;;;;;23.83;13.73;;;7.30;99.90;;;;;;5055697;28;20235;-88
2023/02/23 01:28:00;;;;;;;21.10;13.00;;;7.50;99.90;;;;;;5052009;28;20225;-89
2023/02/23 01:30:27;;;;;;;23.17;12.63;;;7.40;99.90;;;;;;5051630;28;20217;-89
2023/02/23 01:32:54;;;;;;;19.47;11.90;;;7.60;99.90;;;;;;5069200;28;20550;-89
2023/02/23 01:35:21;;;;;;;19.60;12.10;;;7.40;99.90;;;;;;5070996;28;20238;-89
2023/02/23 01:37:48;;;;;;;20.83;12.47;;;7.40;99.90;;;;;;5057374;28;20211;-88
2023/02/23 01:40:17;;;;;;;20.60;11.97;;;7.50;99.90;;;;;;5052347;28;20203;-89
2023/02/23 01:42:46;;;;;;;22.10;13.37;;;7.40;99.90;;;;;;5050506;28;20206;-89
2023/02/23 01:45:25;;;;;;;20.33;12.47;;;7.40;99.90;;;;;;5054168;28;20290;-89
2023/02/23 01:47:55;;;;;;;20.73;13.47;;;7.40;99.90;;;;;;5062490;28;20234;-90
2023/02/23 01:50:24;;;;;;;19.93;12.17;;;7.30;99.90;;;;;;5067470;28;20206;-90
2023/02/23 01:52:52;;;;;;;28.80;13.67;;;7.30;99.90;;;;;;5063270;28;20210;-89
2023/02/23 01:55:23;;;;;;;21.33;13.20;;;7.30;99.90;;;;;;5067993;28;20214;-89
2023/02/23 01:57:56;;;;;;;22.40;12.77;;;7.40;99.90;;;;;;5058392;28;20227;-89
2023/02/23 02:00:25;;;;;;;22.67;12.40;;;7.40;99.90;;;;;;5062327;28;20198;-89
2023/02/23 02:02:52;;;;;;;24.10;14.43;;;7.30;99.90;;;;;;5051670;28;20199;-89
2023/02/23 02:05:20;;;;;;;22.97;13.57;;;7.30;99.90;;;;;;5067545;28;20609;-89
2023/02/23 02:07:57;;;;;;;25.83;14.33;;;7.40;99.90;;;;;;5063780;28;20581;-89
2023/02/23 02:10:43;;;;;;;22.93;12.77;;;7.50;99.90;;;;;;5063126;28;20245;-90
2023/02/23 02:13:18;;;;;;;22.90;14.23;;;7.40;99.90;;;;;;5066179;28;20209;-89
2023/02/23 02:16:15;;;;;;;22.50;12.53;;;7.40;99.90;;;;;;5070600;28;20235;-89
2023/02/23 02:19:04;;;;;;;25.43;14.87;;;7.40;99.90;;;;;;5059293;28;20211;-89
2023/02/23 02:22:03;;;;;;;22.57;14.37;;;7.40;99.90;;;;;;5051752;28;20206;-89
2023/02/23 02:25:05;;;;;;;23.27;14.60;;;7.40;99.90;;;;;;5051707;28;20265;-89
2023/02/23 02:27:57;;;;;;;21.20;13.10;;;7.40;99.90;;;;;;5051746;28;20727;-89
2023/02/23 02:30:55;;;;;;;22.30;13.57;;;7.30;99.90;;;;;;5050952;28;20256;-89
2023/02/23 02:33:57;;;;;;;22.40;14.30;;;7.40;99.90;;;;;;5051339;28;20199;-89
2023/02/23 02:36:52;;;;;;;24.80;14.50;;;7.40;99.90;;;;;;5050926;28;20218;-89
2023/02/23 02:39:34;;;;;;;26.07;15.27;;;7.30;99.90;;;;;;5059301;28;20199;-89
2023/02/23 02:42:12;;;;;;;24.23;14.60;;;7.30;99.90;;;;;;5069560;28;20591;-89
2023/02/23 02:44:48;;;;;;;24.83;16.23;;;7.30;99.90;;;;;;5062844;28;20522;-89
2023/02/23 02:47:19;;;;;;;25.13;15.10;;;7.20;99.90;;;;;;5069937;28;20213;-90
2023/02/23 02:49:52;;;;;;;26.57;17.17;;;7.20;99.90;;;;;;5056270;28;20286;-89
2023/02/23 02:52:29;;;;;;;25.30;15.40;;;7.20;99.90;;;;;;5070642;28;20198;-89
2023/02/23 02:54:59;;;;;;;24.80;14.53;;;7.20;99.90;;;;;;5058318;28;20222;-89
2023/02/23 02:57:28;;;;;;;25.63;15.70;;;7.30;99.90;;;;;;5073780;28;20198;-89
2023/02/23 04:18:32;;;;;;;27.60;18.00;;;6.70;99.90;;;;;;5073184;28;20194;-89
2023/02/23 04:21:00;;;;;;;27.90;16.47;;;6.80;99.90;;;;;;5068493;28;20203;-90
2023/02/23 04:23:27;;;;;;;27.23;17.70;;;6.70;99.90;;;;;;5053352;28;20195;-91
2023/02/23 04:25:54;;;;;;;25.20;16.40;;;6.70;99.90;;;;;;5053536;28;20390;-90
2023/02/23 04:28:22;;;;;;;27.80;16.93;;;6.60;99.90;;;;;;5053329;28;20222;-90
2023/02/23 04:30:51;;;;;;;31.90;21.17;;;6.50;99.90;;;;;;5060820;28;20281;-90
2023/02/23 04:33:20;;;;;;;28.47;17.53;;;6.50;99.90;;;;;;5055169;28;20575;-90
2023/02/23 04:35:47;;;;;;;24.67;15.57;;;6.60;99.90;;;;;;5053343;28;20222;-90
2023/02/23 04:38:13;;;;;;;28.57;17.17;;;6.60;99.90;;;;;;5053440;28;20199;-90
2023/02/23 04:40:40;;;;;;;25.37;15.97;;;6.60;99.90;;;;;;5053250;28;20211;-90
2023/02/23 04:43:07;;;;;;;26.33;17.03;;;6.60;99.90;;;;;;5052951;28;20226;-91
2023/02/23 04:45:34;;;;;;;27.43;17.27;;;6.60;99.90;;;;;;5052953;28;20238;-90
2023/02/23 04:48:01;;;;;;;29.63;17.87;;;6.60;99.90;;;;;;5053067;28;20227;-89
2023/02/23 04:50:29;;;;;;;28.40;16.97;;;6.70;99.90;;;;;;5053142;28;20206;-90
2023/02/23 04:52:56;;;;;;;27.77;16.40;;;6.70;99.90;;;;;;5052980;28;20606;-90
2023/02/23 04:55:24;;;;;;;27.60;17.97;;;6.60;99.90;;;;;;5054598;28;20227;-90
2023/02/23 04:57:51;;;;;;;25.70;16.37;;;6.60;99.90;;;;;;5077777;28;20208;-90
2023/02/23 05:00:19;;;;;;;29.20;16.73;;;6.40;99.90;;;;;;5076360;28;20217;-90
2023/02/23 05:02:46;;;;;;;26.93;17.60;;;6.50;99.90;;;;;;5069415;28;20209;-89
2023/02/23 05:05:13;;;;;;;27.33;16.93;;;6.40;99.90;;;;;;5065366;28;20310;-90
2023/02/23 05:07:41;;;;;;;26.93;16.30;;;6.30;99.90;;;;;;5070116;28;20234;-90
2023/02/23 05:10:09;;;;;;;27.10;17.27;;;6.50;99.90;;;;;;5071481;28;20203;-90
2023/02/23 05:12:35;;;;;;;32.30;18.20;;;6.30;99.90;;;;;;5072311;28;20206;-90
2023/02/23 05:15:02;;;;;;;25.73;15.67;;;6.20;99.90;;;;;;5067904;28;20234;-90
2023/02/23 05:17:29;;;;;;;24.30;15.40;;;6.20;99.90;;;;;;5051783;28;20203;-90
2023/02/23 05:19:56;;;;;;;26.40;17.27;;;6.30;99.90;;;;;;5052921;28;20205;-90
2023/02/23 05:22:23;;;;;;;26.83;17.57;;;6.30;99.90;;;;;;5057961;28;20697;-90
2023/02/23 05:24:51;;;;;;;28.93;17.13;;;6.30;99.90;;;;;;5072523;28;20220;-90
2023/02/23 05:27:18;;;;;;;27.87;17.30;;;6.30;99.90;;;;;;5072388;28;20210;-90
2023/02/23 05:29:45;;;;;;;29.57;18.77;;;6.40;99.90;;;;;;5072053;28;20217;-90
2023/02/23 05:32:11;;;;;;;28.53;17.97;;;6.50;99.90;;;;;;5071595;28;20676;-90
2023/02/23 05:34:39;;;;;;;27.97;17.60;;;6.50;99.90;;;;;;5071804;28;20222;-90
2023/02/23 05:37:07;;;;;;;30.17;18.70;;;6.50;99.90;;;;;;5072858;28;20237;-90
2023/02/23 05:39:34;;;;;;;27.97;18.13;;;6.50;99.90;;;;;;5072625;28;20784;-89
2023/02/23 05:42:02;;;;;;;30.43;18.97;;;6.70;99.90;;;;;;5066159;28;20586;-90
2023/02/23 05:44:29;;;;;;;29.90;18.90;;;6.60;99.90;;;;;;5060093;28;20226;-89
2023/02/23 05:46:56;;;;;;;31.53;18.50;;;6.60;99.90;;;;;;5051447;28;20221;-90
2023/02/23 05:49:23;;;;;;;29.27;18.70;;;6.60;99.90;;;;;;5060646;28;20321;-90
2023/02/23 05:51:50;;;;;;;28.43;18.43;;;6.50;99.90;;;;;;5072045;28;20202;-90
2023/02/23 05:54:17;;;;;;;30.67;19.03;;;6.50;99.90;;;;;;5058950;28;20301;-89
2023/02/23 05:56:43;;;;;;;28.77;18.03;;;6.50;99.90;;;;;;5052558;28;20223;-90
2023/02/23 05:59:12;;;;;;;33.60;19.10;;;6.60;99.90;;;;;;5052282;28;20214;-90
2023/02/23 06:01:39;;;;;;;30.00;18.50;;;6.60;99.90;;;;;;5052079;28;20207;-90
2023/02/23 06:04:06;;;;;;;33.50;20.03;;;6.60;99.90;;;;;;5050643;28;20205;-89
2023/02/23 06:06:32;;;;;;;31.20;18.77;;;6.60;99.90;;;;;;5052262;28;20210;-90
2023/02/23 06:09:00;;;;;;;31.20;20.47;;;6.60;99.90;;;;;;5052103;28;20226;-89
2023/02/23 06:11:27;;;;;;;29.93;19.77;;;6.50;99.90;;;;;;5051513;28;20207;-90
2023/02/23 06:13:54;;;;;;;29.60;19.50;;;6.60;99.90;;;;;;5051792;28;20215;-89
2023/02/23 06:16:22;;;;;;;31.60;19.37;;;6.50;99.90;;;;;;5051637;28;20293;-90
2023/02/23 06:18:49;;;;;;;36.90;22.80;;;6.50;99.90;;;;;;5052070;28;20209;-90
2023/02/23 06:21:16;;;;;;;32.93;22.23;;;6.50;99.90;;;;;;5051317;28;20211;-89
2023/02/23 06:23:42;;;;;;;40.50;24.67;;;6.60;99.90;;;;;;5051198;28;20222;-90
2023/02/23 06:26:09;;;;;;;35.60;22.13;;;6.60;99.90;;;;;;5062465;28;20226;-90
2023/02/23 06:28:36;;;;;;;37.50;24.27;;;6.60;99.90;;;;;;5065355;28;20225;-90
2023/02/23 06:31:03;;;;;;;39.03;24.87;;;6.70;99.90;;;;;;5071252;28;20213;-90
2023/02/23 06:33:31;;;;;;;38.60;24.57;;;6.80;99.90;;;;;;5075176;28;20239;-90
2023/02/23 06:35:58;;;;;;;40.80;24.40;;;6.70;99.90;;;;;;5074633;28;20233;-90
2023/02/23 06:38:25;;;;;;;41.57;26.40;;;6.80;99.90;;;;;;5055680;28;20203;-90
2023/02/23 06:40:52;;;;;;;39.80;24.03;;;6.80;99.90;;;;;;5056002;28;20608;-90
2023/02/23 06:43:18;;;;;;;37.37;24.57;;;6.80;99.90;;;;;;5055696;28;20211;-90
2023/02/23 06:45:46;;;;;;;34.67;21.53;;;6.80;99.90;;;;;;5054991;28;20246;-90
2023/02/23 06:48:13;;;;;;;47.67;21.37;;;6.60;99.90;;;;;;5055979;28;20703;-90
2023/02/23 06:50:42;;;;;;;34.10;20.50;;;6.50;99.90;;;;;;5055756;28;20211;-91
2023/02/23 06:53:09;;;;;;;31.50;20.73;;;6.60;99.90;;;;;;5070010;28;20258;-91
2023/02/23 06:55:36;;;;;;;35.90;21.27;;;6.60;99.90;;;;;;5076656;28;20310;-90
2023/02/23 06:58:05;;;;;;;34.67;23.73;;;6.60;99.90;;;;;;5065225;28;20668;-90
2023/02/23 07:00:32;;;;;;;36.77;23.70;;;6.80;99.90;;;;;;5054712;28;20548;-90
2023/02/23 07:02:59;;;;;;;40.00;25.30;;;6.80;99.90;;;;;;5054461;28;20200;-90
2023/02/23 07:05:26;;;;;;;36.30;24.23;;;6.90;99.90;;;;;;5054077;28;20226;-90
2023/02/23 07:07:54;;;;;;;37.43;23.80;;;6.90;99.90;;;;;;5055121;28;20206;-90
2023/02/23 07:10:21;;;;;;;38.17;24.30;;;7.00;99.90;;;;;;5063245;28;20211;-90
2023/02/23 07:12:48;;;;;;;42.43;25.37;;;7.00;99.90;;;;;;5061889;28;20575;-89
2023/02/23 07:15:17;;;;;;;37.43;23.63;;;7.00;99.90;;;;;;5053240;28;20234;-89
2023/02/23 07:17:47;;;;;;;35.87;24.67;;;7.00;99.90;;;;;;5074294;28;20252;-90
2023/02/23 07:20:14;;;;;;;35.43;21.90;;;7.00;99.90;;;;;;5074787;28;20206;-90
2023/02/23 07:22:41;;;;;;;34.87;21.43;;;7.00;99.90;;;;;;5067269;28;20214;-89
2023/02/23 07:25:10;;;;;;;34.30;22.50;;;7.10;99.90;;;;;;5054636;28;20708;-90
2023/02/23 07:27:37;;;;;;;34.77;22.97;;;7.00;99.90;;;;;;5054219;28;20215;-90
2023/02/23 07:30:04;;;;;;;34.10;22.00;;;7.00;99.90;;;;;;5054523;28;20695;-89
2023/02/23 07:32:31;;;;;;;30.63;20.87;;;7.10;99.90;;;;;;5054411;28;20217;-90
2023/02/23 07:34:58;;;;;;;32.30;21.83;;;7.10;99.90;;;;;;5054296;28;20222;-89
2023/02/23 07:37:25;;;;;;;38.80;26.97;;;7.20;99.90;;;;;;5054237;28;20195;-90
2023/02/23 07:39:51;;;;;;;32.00;21.47;;;7.20;99.90;;;;;;5052122;28;20682;-89
2023/02/23 07:42:19;;;;;;;36.47;22.13;;;7.20;99.90;;;;;;5053683;28;20217;-89
2023/02/23 07:44:46;;;;;;;36.77;24.10;;;7.10;99.90;;;;;;5054141;28;20656;-90
2023/02/23 07:47:13;;;;;;;38.50;24.73;;;7.20;99.90;;;;;;5055048;28;20201;-91
2023/02/23 07:49:40;;;;;;;38.43;25.07;;;7.20;99.90;;;;;;5053920;28;20723;-90
2023/02/23 07:52:07;;;;;;;34.23;23.40;;;7.20;99.90;;;;;;5053751;28;20572;-90
2023/02/23 07:54:33;;;;;;;39.33;25.10;;;7.20;99.90;;;;;;5052824;28;20223;-91
2023/02/23 07:57:00;;;;;;;34.70;23.93;;;7.30;99.90;;;;;;5060604;28;20203;-90
2023/02/23 07:59:29;;;;;;;39.90;25.73;;;7.40;99.90;;;;;;5065634;28;20202;-90
2023/02/23 08:01:55;;;;;;;40.10;25.20;;;7.40;99.90;;;;;;5071844;28;20206;-89
2023/02/23 08:04:22;;;;;;;39.63;25.57;;;7.50;99.90;;;;;;5073851;28;20222;-90
2023/02/23 08:06:49;;;;;;;39.63;27.40;;;7.60;99.90;;;;;;5068596;28;20214;-89
2023/02/23 08:09:16;;;;;;;41.07;27.40;;;7.80;99.90;;;;;;5052382;28;20218;-90
2023/02/23 08:11:43;;;;;;;41.20;27.20;;;7.70;99.90;;;;;;5064712;28;20207;-90
2023/02/23 08:14:11;;;;;;;45.87;29.63;;;8.00;99.90;;;;;;5073179;28;20319;-89
2023/02/23 08:16:40;;;;;;;47.10;31.17;;;7.90;99.90;;;;;;5066814;28;20213;-90
2023/02/23 08:19:06;;;;;;;57.63;36.57;;;8.10;99.90;;;;;;5068096;28;20205;-90
2023/02/23 08:21:35;;;;;;;59.50;37.93;;;8.20;99.90;;;;;;5073196;28;20202;-90
2023/02/23 08:24:02;;;;;;;60.90;38.17;;;8.20;99.90;;;;;;5054094;28;20286;-89
2023/02/23 08:26:29;;;;;;;55.70;38.00;;;8.30;99.90;;;;;;5053309;28;20215;-89
2023/02/23 08:28:56;;;;;;;55.63;38.47;;;8.40;99.90;;;;;;5053017;28;20219;-90
2023/02/23 08:31:23;;;;;;;57.70;38.03;;;8.40;99.90;;;;;;5053062;28;20589;-90
2023/02/23 08:33:52;;;;;;;60.73;38.63;;;8.50;99.90;;;;;;5053002;28;20211;-89
2023/02/23 08:36:20;;;;;;;64.10;41.27;;;8.50;99.90;;;;;;5052848;28;20207;-89
2023/02/23 08:38:47;;;;;;;56.53;39.90;;;8.50;99.90;;;;;;5053172;28;20726;-90
2023/02/23 08:41:14;;;;;;;61.63;38.80;;;8.60;99.90;;;;;;5053366;28;20268;-89
2023/02/23 08:43:40;;;;;;;57.13;39.00;;;8.60;99.90;;;;;;5054933;28;20610;-90
2023/02/23 08:46:07;;;;;;;57.77;39.07;;;8.60;99.90;;;;;;5064009;28;20233;-90
2023/02/23 08:48:37;;;;;;;61.40;40.50;;;8.70;99.90;;;;;;5072158;28;20233;-89
2023/02/23 08:51:06;;;;;;;64.00;41.43;;;8.70;99.90;;;;;;5070524;28;20238;-90
2023/02/23 08:53:33;;;;;;;62.33;41.87;;;8.70;99.90;;;;;;5072126;28;20206;-90
2023/02/23 08:56:02;;;;;;;64.77;42.93;;;8.70;99.90;;;;;;5057925;28;20246;-90
2023/02/23 08:58:30;;;;;;;60.63;39.60;;;8.70;99.90;;;;;;5062277;28;20205;-89
2023/02/23 09:00:57;;;;;;;60.77;39.33;;;8.70;99.90;;;;;;5068087;28;20265;-90
2023/02/23 09:03:27;;;;;;;61.13;41.27;;;8.80;99.90;;;;;;5058167;28;20191;-90
2023/02/23 09:05:55;;;;;;;62.40;38.97;;;8.80;99.90;;;;;;5071994;28;20279;-90
2023/02/23 09:08:24;;;;;;;58.77;39.70;;;8.80;99.90;;;;;;5072409;28;20206;-91
2023/02/23 09:10:50;;;;;;;61.00;39.57;;;8.80;99.90;;;;;;5071336;28;20210;-90
2023/02/23 09:13:17;;;;;;;59.37;40.00;;;8.80;99.90;;;;;;5063640;28;20203;-90
2023/02/23 09:15:44;;;;;;;59.80;39.90;;;8.80;99.90;;;;;;5054047;28;20215;-91
2023/02/23 09:18:13;;;;;;;63.97;40.77;;;8.80;99.90;;;;;;5072740;28;20206;-90
2023/02/23 09:20:41;;;;;;;62.57;41.43;;;8.80;99.90;;;;;;5072320;28;20202;-90
2023/02/23 09:23:08;;;;;;;60.70;39.97;;;8.80;99.90;;;;;;5065106;28;20210;-91
2023/02/23 09:25:42;;;;;;;66.33;40.47;;;8.80;99.90;;;;;;5052949;28;20237;-91
2023/02/23 09:28:10;;;;;;;65.00;42.67;;;8.80;99.90;;;;;;5052654;28;20238;-90
2023/02/23 09:30:37;;;;;;;64.00;40.80;;;8.80;99.90;;;;;;5052020;28;20231;-90
2023/02/23 09:33:06;;;;;;;64.33;41.63;;;8.80;99.90;;;;;;5051997;28;20199;-90
2023/02/23 09:35:33;;;;;;;62.40;42.07;;;8.90;99.90;;;;;;5051629;28;20230;-90
2023/02/23 09:38:02;;;;;;;57.87;39.93;;;8.60;99.90;;;;;;5052363;28;20768;-90
2023/02/23 09:40:37;;;;;;;62.50;40.57;;;8.60;99.90;;;;;;5052202;28;20206;-90
2023/02/23 09:43:12;;;;;;;57.93;38.03;;;8.60;99.90;;;;;;5051174;28;20580;-91
2023/02/23 09:45:41;;;;;;;59.63;39.70;;;8.60;99.90;;;;;;5051715;28;20234;-90
2023/02/23 09:48:16;;;;;;;59.43;39.80;;;8.60;99.90;;;;;;5052137;28;20215;-90
2023/02/23 09:50:47;;;;;;;56.43;37.67;;;8.50;99.90;;;;;;5051837;28;20226;-90
2023/02/23 09:53:35;;;;;;;58.10;37.93;;;8.50;99.90;;;;;;5051803;28;20213;-92
2023/02/23 09:56:09;;;;;;;63.53;39.87;;;8.50;99.90;;;;;;5051685;28;20231;-90
2023/02/23 09:58:38;;;;;;;59.53;42.23;;;8.50;99.90;;;;;;5052438;28;20297;-90
2023/02/23 10:01:40;;;;;;;61.37;38.83;;;8.50;99.90;;;;;;5058776;28;20206;-90
2023/02/23 10:04:13;;;;;;;58.47;37.47;;;8.60;99.90;;;;;;5064253;28;20199;-90
2023/02/23 10:06:43;;;;;;;58.50;36.80;;;8.60;99.90;;;;;;5086800;28;20216;-91
2023/02/23 10:09:18;;;;;;;58.83;38.47;;;8.60;99.90;;;;;;5083970;28;20609;-90
2023/02/23 10:11:50;;;;;;;59.27;38.53;;;8.60;99.90;;;;;;5055823;28;20710;-91
2023/02/23 10:14:43;;;;;;;60.10;36.80;;;8.50;99.90;;;;;;5054416;28;20731;-90
2023/02/23 10:17:17;;;;;;;56.83;37.70;;;8.50;99.90;;;;;;5073655;28;20224;-90
2023/02/23 10:19:50;;;;;;;57.37;36.97;;;8.60;99.90;;;;;;5074793;28;20671;-90
2023/02/23 10:22:19;;;;;;;51.13;35.27;;;8.50;99.90;;;;;;5074696;28;20217;-90
2023/02/23 10:24:53;;;;;;;59.30;37.33;;;8.70;99.90;;;;;;5075663;28;20237;-90
2023/02/23 10:27:23;;;;;;;55.93;37.77;;;8.60;99.90;;;;;;5075945;28;20569;-90
2023/02/23 10:29:54;;;;;;;58.03;37.03;;;8.60;99.90;;;;;;5074613;28;20233;-90
2023/02/23 10:32:28;;;;;;;53.57;37.90;;;8.50;99.90;;;;;;5075537;28;20686;-91
2023/02/23 10:34:56;;;;;;;55.17;36.93;;;8.50;99.90;;;;;;5075093;28;20234;-90
2023/02/23 10:37:24;;;;;;;61.23;39.17;;;8.50;99.90;;;;;;5074443;28;20236;-90
2023/02/23 10:39:52;;;;;;;54.07;36.30;;;8.50;99.90;;;;;;5074845;28;20198;-90
2023/02/23 10:42:22;;;;;;;57.50;38.13;;;8.40;99.90;;;;;;5077258;28;20202;-90
2023/02/23 10:44:51;;;;;;;55.77;37.13;;;8.40;99.90;;;;;;5054727;28;20231;-90
2023/02/23 10:47:20;;;;;;;62.87;37.87;;;8.50;99.90;;;;;;5073538;28;20221;-90
2023/02/23 10:49:49;;;;;;;57.07;36.60;;;8.50;99.90;;;;;;5054633;28;20226;-91
2023/02/23 10:52:21;;;;;;;53.97;36.57;;;8.50;99.90;;;;;;5054103;28;20283;-90
2023/02/23 10:54:49;;;;;;;54.70;35.60;;;8.50;99.90;;;;;;5054661;28;20227;-90
2023/02/23 10:57:25;;;;;;;54.17;34.50;;;8.50;99.90;;;;;;5054999;28;20214;-90
2023/02/23 11:00:04;;;;;;;56.67;36.43;;;8.50;99.90;;;;;;5055110;28;20205;-90
2023/02/23 11:02:32;;;;;;;55.37;35.13;;;8.40;99.90;;;;;;5054374;28;20297;-90
2023/02/23 11:05:01;;;;;;;53.43;34.53;;;8.40;99.90;;;;;;5060587;28;20257;-90
2023/02/23 11:07:30;;;;;;;48.53;32.10;;;8.50;99.90;;;;;;5074662;28;20216;-90
2023/02/23 11:09:57;;;;;;;51.27;32.63;;;8.40;99.90;;;;;;5073800;28;20226;-90
2023/02/23 11:12:27;;;;;;;51.30;32.77;;;8.40;99.90;;;;;;5074767;28;20210;-90
2023/02/23 11:14:56;;;;;;;49.10;32.83;;;8.50;99.90;;;;;;5070250;28;20240;-90
2023/02/23 11:17:31;;;;;;;49.03;31.83;;;8.40;99.90;;;;;;5055024;28;20577;-90
2023/02/23 11:20:01;;;;;;;47.60;32.10;;;8.40;99.90;;;;;;5054759;28;20206;-90
2023/02/23 11:22:32;;;;;;;52.20;33.73;;;8.40;99.90;;;;;;5053845;28;20222;-90
2023/02/23 11:25:00;;;;;;;51.67;32.80;;;8.50;99.90;;;;;;5054465;28;20231;-90
2023/02/23 11:27:27;;;;;;;47.60;31.23;;;8.50;99.90;;;;;;5054253;28;20238;-90
2023/02/23 11:29:58;;;;;;;45.43;28.47;;;8.50;99.90;;;;;;5053465;28;20223;-90
2023/02/23 11:32:31;;;;;;;43.60;30.03;;;8.50;99.90;;;;;;5064001;28;20287;-91
2023/02/23 11:35:26;;;;;;;45.23;31.00;;;8.60;99.90;;;;;;5074140;28;20226;-90
2023/02/23 11:37:54;;;;;;;45.00;29.00;;;8.60;99.90;;;;;;5054887;28;20209;-90
2023/02/23 11:40:24;;;;;;;45.43;28.93;;;8.60;99.90;;;;;;5061051;28;20199;-90
2023/02/23 11:42:53;;;;;;;44.13;29.80;;;8.50;99.90;;;;;;5064890;28;20210;-89
2023/02/23 11:45:22;;;;;;;46.97;30.17;;;8.60;99.90;;;;;;5070018;28;20249;-90
2023/02/23 11:47:52;;;;;;;43.03;29.73;;;8.70;99.90;;;;;;5065127;28;20660;-91
2023/02/23 11:50:25;;;;;;;44.77;29.80;;;8.80;99.90;;;;;;5070666;28;20227;-90
2023/02/23 11:52:58;;;;;;;42.77;27.63;;;8.80;99.90;;;;;;5054117;28;20446;-90
2023/02/23 11:55:25;;;;;;;46.10;30.37;;;8.80;99.90;;;;;;5053544;28;20590;-91
2023/02/23 11:57:55;;;;;;;43.73;28.63;;;8.70;99.90;;;;;;5054326;28;20252;-90
2023/02/23 12:00:26;;;;;;;43.47;28.67;;;8.80;99.90;;;;;;5052892;28;20720;-90
2023/02/23 12:02:57;;;;;;;44.00;27.37;;;8.80;99.90;;;;;;5053963;28;20215;-90
2023/02/23 12:05:27;;;;;;;42.87;27.33;;;8.90;99.90;;;;;;5053665;28;20695;-90
2023/02/23 12:08:00;;;;;;;41.80;25.70;;;8.90;99.90;;;;;;5053274;28;20232;-91
2023/02/23 12:10:30;;;;;;;40.87;27.10;;;8.90;99.90;;;;;;5053537;28;20706;-90
2023/02/23 12:13:06;;;;;;;39.80;26.13;;;9.10;99.90;;;;;;5067477;28;20207;-90
2023/02/23 12:15:43;;;;;;;40.17;25.60;;;9.00;99.90;;;;;;5073562;28;20232;-90
2023/02/23 12:18:22;;;;;;;37.40;23.87;;;8.90;99.90;;;;;;5073160;28;20220;-90
2023/02/23 12:20:53;;;;;;;39.43;26.63;;;9.10;99.90;;;;;;5073341;28;20293;-90
2023/02/23 12:23:24;;;;;;;37.27;25.37;;;8.90;99.90;;;;;;5072371;28;20209;-90
2023/02/23 12:25:56;;;;;;;35.33;23.53;;;9.00;99.90;;;;;;5066438;28;20234;-90
2023/02/23 12:28:29;;;;;;;36.10;22.97;;;9.00;99.90;;;;;;5073159;28;20203;-90
2023/02/23 12:31:01;;;;;;;37.90;24.23;;;9.10;99.90;;;;;;5072021;28;20233;-90
2023/02/23 12:33:34;;;;;;;36.60;24.23;;;9.00;99.90;;;;;;5054377;28;20664;-90
2023/02/23 12:36:09;;;;;;;36.50;22.97;;;9.10;99.90;;;;;;5052636;28;20257;-90
2023/02/23 12:38:47;;;;;;;39.63;26.50;;;9.20;99.90;;;;;;5053486;28;20625;-89
2023/02/23 12:41:20;;;;;;;36.90;24.07;;;9.20;99.90;;;;;;5053288;28;20211;-91
2023/02/23 12:43:50;;;;;;;34.43;22.40;;;9.20;99.90;;;;;;5052748;28;20689;-90
2023/02/23 12:46:21;;;;;;;34.63;22.57;;;9.20;99.90;;;;;;5052454;28;20223;-90
2023/02/23 12:48:57;;;;;;;33.50;21.93;;;9.20;99.90;;;;;;5052956;28;20207;-90
2023/02/23 12:51:29;;;;;;;33.23;22.53;;;9.00;99.90;;;;;;5052307;28;20237;-90
2023/02/23 12:53:56;;;;;;;32.97;22.40;;;9.00;99.90;;;;;;5060312;28;20198;-90
2023/02/23 12:56:34;;;;;;;31.87;20.70;;;9.20;99.90;;;;;;5053512;28;20623;-90
2023/02/23 12:59:16;;;;;;;33.97;20.20;;;9.20;99.90;;;;;;5055715;28;20210;-90
2023/02/23 13:01:47;;;;;;;32.33;21.03;;;9.10;99.90;;;;;;5058040;28;20205;-90
2023/02/23 13:04:35;;;;;;;28.73;20.10;;;9.10;99.90;;;;;;5054472;28;20237;-90
2023/02/23 13:07:10;;;;;;;29.70;19.90;;;9.10;99.90;;;;;;5052202;28;20233;-90
2023/02/23 13:09:49;;;;;;;29.57;19.53;;;9.10;99.90;;;;;;5060146;28;20206;-90
2023/02/23 13:12:30;;;;;;;28.63;19.70;;;9.10;99.90;;;;;;5054375;28;20207;-90
2023/02/23 13:15:07;;;;;;;29.43;19.50;;;9.10;99.90;;;;;;5052061;28;20230;-89
2023/02/23 13:17:43;;;;;;;27.63;17.97;;;9.00;99.90;;;;;;5053150;28;20211;-90
2023/02/23 13:20:18;;;;;;;26.70;18.70;;;9.00;99.90;;;;;;5062922;28;20206;-90
2023/02/23 13:22:51;;;;;;;29.67;19.03;;;8.80;99.90;;;;;;5065198;28;20675;-90
2023/02/23 13:25:30;;;;;;;28.63;19.57;;;8.90;99.90;;;;;;5070820;28;20236;-88
2023/02/23 13:28:00;;;;;;;33.00;21.27;;;8.90;99.90;;;;;;5062365;28;20287;-89
2023/02/23 13:30:31;;;;;;;30.13;20.43;;;8.90;99.90;;;;;;5067052;28;20612;-90
2023/02/23 13:32:59;;;;;;;31.63;20.67;;;8.90;99.90;;;;;;5057127;28;20216;-89
2023/02/23 13:35:38;;;;;;;36.90;22.37;;;8.90;99.90;;;;;;5075029;28;20242;-90
2023/02/23 13:38:14;;;;;;;37.20;22.70;;;8.90;99.90;;;;;;5067079;28;20194;-91
2023/02/23 13:40:46;;;;;;;37.60;23.20;;;8.90;99.90;;;;;;5054831;28;20683;-90
2023/02/23 13:43:21;;;;;;;38.27;24.10;;;8.90;99.90;;;;;;5057537;28;20668;-90
2023/02/23 13:46:13;;;;;;;38.80;24.27;;;8.90;99.90;;;;;;5067889;28;20238;-90
2023/02/23 13:48:51;;;;;;;41.93;24.60;;;8.80;99.90;;;;;;5069397;28;20602;-90
2023/02/23 13:51:30;;;;;;;39.47;22.10;;;8.80;99.90;;;;;;5068524;28;20230;-91
2023/02/23 13:54:05;;;;;;;34.90;19.07;;;8.80;99.90;;;;;;5074187;28;20208;-91
2023/02/23 13:56:41;;;;;;;32.93;17.80;;;8.60;99.90;;;;;;5071516;28;20637;-90
2023/02/23 13:59:16;;;;;;;31.03;16.60;;;8.60;99.90;;;;;;5072329;28;20204;-91
2023/02/23 14:01:46;;;;;;;30.50;14.93;;;8.60;99.90;;;;;;5072261;28;20219;-90
2023/02/23 14:04:15;;;;;;;28.10;14.63;;;8.60;99.90;;;;;;5062313;28;20230;-90
2023/02/23 14:06:52;;;;;;;28.40;14.07;;;8.60;99.90;;;;;;5069760;28;20213;-91
2023/02/23 14:09:25;;;;;;;28.70;14.93;;;8.50;99.90;;;;;;5069131;28;20589;-90
2023/02/23 14:11:52;;;;;;;32.13;16.50;;;8.60;99.90;;;;;;5067362;28;20718;-90